Woody Richerson — WDF9621 — position and weather

sailwx.info

Track history (hours):
 
Tides and Currents Weather Stations Pressure Air Temp Water Temp Dewpoint Dewpoint Depression Visibility Wind Speed Wind Dir Waves Ship Positions

Woody Richerson

Owner: Florida Marine, LLC, Mandeville, LA. More information available from US FCC via Universal Licensing System and Coast Guard Vessel Documentation Center.

Last reported at 2015-Jan-27 19:28 UTC. Time now 2015-Jan-28 16:15 UTC.
Position N 29°51' W 090°04'.

Length 27 m.

Type: Other ship. MMSI: 367507070.

Date/timePositionNaut miles runAvg speedWind from/ knotsBaromVisibWave heightAir tempDewpointWater temp
2015-Jan-27 19:28N 29°51' W 090°04'0 0.0
2015-Jan-27 13:33N 29°51' W 090°04'0 0.0
2015-Jan-27 12:33N 29°51' W 090°04'0 0.0
2015-Jan-27 11:29N 29°51' W 090°04'0 0.0
2015-Jan-27 10:31N 29°51' W 090°04'0 0.0
2015-Jan-27 09:31N 29°51' W 090°04'0 0.0
2015-Jan-27 08:31N 29°51' W 090°04'0 0.0
2015-Jan-27 07:33N 29°51' W 090°04'0 0.0
2015-Jan-27 06:33N 29°51' W 090°04'0 0.0
2015-Jan-27 05:32N 29°51' W 090°04'50 3.8
2015-Jan-26 16:23N 29°35' W 090°57'5 6.4
2015-Jan-26 15:32N 29°37' W 091°03'6 6.3
2015-Jan-26 14:33N 29°41' W 091°09'6 5.6
2015-Jan-26 13:33N 29°39' W 091°15'5 4.8
2015-Jan-26 12:33N 29°38' W 091°20'  
2015-Jan-19 17:13N 29°34' W 094°26'8 4.2
2015-Jan-19 15:15N 29°30' W 094°34'5 4.3
2015-Jan-19 14:07N 29°28' W 094°39'2 3.4
2015-Jan-19 13:33N 29°27' W 094°41'9 3.0
2015-Jan-19 10:33N 29°28' W 094°51'6 5.9
2015-Jan-19 09:33N 29°33' W 094°55'6 5.8
2015-Jan-19 08:33N 29°38' W 094°58'6 5.6
2015-Jan-19 07:33N 29°43' W 095°01'4 4.4
2015-Jan-19 06:33N 29°45' W 095°06'5 5.2
2015-Jan-19 05:33N 29°44' W 095°12'2 2.5
2015-Jan-19 04:33N 29°43' W 095°14'0 0.1
2015-Jan-19 03:33N 29°43' W 095°14'0 0.0
2015-Jan-19 02:33N 29°43' W 095°14'0 0.0
2015-Jan-19 01:33N 29°43' W 095°14'0 0.0
2015-Jan-19 00:33N 29°43' W 095°14'0 0.0
2015-Jan-18 23:33N 29°43' W 095°14'0 0.0
2015-Jan-18 22:33N 29°43' W 095°14'0 0.0
2015-Jan-18 21:33N 29°43' W 095°14'0 0.0
2015-Jan-18 20:33N 29°43' W 095°14'0 0.0
2015-Jan-18 19:33N 29°43' W 095°14'0 0.0
2015-Jan-18 18:33N 29°43' W 095°14'0 0.0
2015-Jan-18 17:33N 29°43' W 095°14'0 0.0
2015-Jan-18 16:33N 29°43' W 095°14'0 0.0
2015-Jan-18 15:33N 29°43' W 095°14'0 0.0
2015-Jan-18 14:33N 29°43' W 095°14'0 0.0
2015-Jan-18 13:33N 29°43' W 095°14'0 0.0
2015-Jan-18 12:33N 29°43' W 095°14'0 0.0
2015-Jan-18 11:33N 29°43' W 095°14'0 0.3
2015-Jan-18 10:33N 29°43' W 095°14'4 4.3
2015-Jan-18 09:33N 29°44' W 095°09'4 4.4
2015-Jan-18 08:33N 29°46' W 095°05'1 1.3
2015-Jan-18 07:33N 29°47' W 095°04'0 0.0
2015-Jan-18 06:33N 29°47' W 095°04'0 0.0
2015-Jan-18 05:33N 29°47' W 095°04'0 0.0
2015-Jan-18 04:33N 29°47' W 095°04'0 0.0
2015-Jan-18 03:33N 29°47' W 095°04'2 2.2
2015-Jan-18 02:33N 29°46' W 095°06'0 0.0
2015-Jan-18 01:33N 29°46' W 095°06'0 0.0
2015-Jan-18 00:33N 29°46' W 095°06'0 0.0
2015-Jan-17 23:33N 29°46' W 095°06'0 0.0
2015-Jan-17 22:33N 29°46' W 095°06'0 0.0
2015-Jan-17 21:33N 29°46' W 095°06'0 0.0
2015-Jan-17 20:33N 29°46' W 095°06'0 0.0
2015-Jan-17 19:33N 29°46' W 095°06'  
Track history (hours):
 
Tides and Currents Weather Stations Pressure Air Temp Water Temp Dewpoint Dewpoint Depression Visibility Wind Speed Wind Dir Waves Ship Positions

Woody Richerson

Owner: Florida Marine, LLC, Mandeville, LA. More information available from US FCC via Universal Licensing System and Coast Guard Vessel Documentation Center.

Last reported at 2015-Jan-27 19:28 UTC. Time now 2015-Jan-28 16:15 UTC.
Position N 29°51' W 090°04'.

Length 27 m.

Type: Other ship. MMSI: 367507070.

Date/timePositionNaut miles runAvg speedWind from/ knotsBaromVisibWave heightAir tempDewpointWater temp
2015-Jan-27 19:28N 29°51' W 090°04'0 0.0
2015-Jan-27 13:33N 29°51' W 090°04'0 0.0
2015-Jan-27 12:33N 29°51' W 090°04'0 0.0
2015-Jan-27 11:29N 29°51' W 090°04'0 0.0
2015-Jan-27 10:31N 29°51' W 090°04'0 0.0
2015-Jan-27 09:31N 29°51' W 090°04'0 0.0
2015-Jan-27 08:31N 29°51' W 090°04'0 0.0
2015-Jan-27 07:33N 29°51' W 090°04'0 0.0
2015-Jan-27 06:33N 29°51' W 090°04'0 0.0
2015-Jan-27 05:32N 29°51' W 090°04'50 3.8
2015-Jan-26 16:23N 29°35' W 090°57'5 6.4
2015-Jan-26 15:32N 29°37' W 091°03'6 6.3
2015-Jan-26 14:33N 29°41' W 091°09'6 5.6
2015-Jan-26 13:33N 29°39' W 091°15'5 4.8
2015-Jan-26 12:33N 29°38' W 091°20'  
2015-Jan-19 17:13N 29°34' W 094°26'8 4.2
2015-Jan-19 15:15N 29°30' W 094°34'5 4.3
2015-Jan-19 14:07N 29°28' W 094°39'2 3.4
2015-Jan-19 13:33N 29°27' W 094°41'9 3.0
2015-Jan-19 10:33N 29°28' W 094°51'6 5.9
2015-Jan-19 09:33N 29°33' W 094°55'6 5.8
2015-Jan-19 08:33N 29°38' W 094°58'6 5.6
2015-Jan-19 07:33N 29°43' W 095°01'4 4.4
2015-Jan-19 06:33N 29°45' W 095°06'5 5.2
2015-Jan-19 05:33N 29°44' W 095°12'2 2.5
2015-Jan-19 04:33N 29°43' W 095°14'0 0.1
2015-Jan-19 03:33N 29°43' W 095°14'0 0.0
2015-Jan-19 02:33N 29°43' W 095°14'0 0.0
2015-Jan-19 01:33N 29°43' W 095°14'0 0.0
2015-Jan-19 00:33N 29°43' W 095°14'0 0.0
2015-Jan-18 23:33N 29°43' W 095°14'0 0.0
2015-Jan-18 22:33N 29°43' W 095°14'0 0.0
2015-Jan-18 21:33N 29°43' W 095°14'0 0.0
2015-Jan-18 20:33N 29°43' W 095°14'0 0.0
2015-Jan-18 19:33N 29°43' W 095°14'0 0.0
2015-Jan-18 18:33N 29°43' W 095°14'0 0.0
2015-Jan-18 17:33N 29°43' W 095°14'0 0.0
2015-Jan-18 16:33N 29°43' W 095°14'0 0.0
2015-Jan-18 15:33N 29°43' W 095°14'0 0.0
2015-Jan-18 14:33N 29°43' W 095°14'0 0.0
2015-Jan-18 13:33N 29°43' W 095°14'0 0.0
2015-Jan-18 12:33N 29°43' W 095°14'0 0.0
2015-Jan-18 11:33N 29°43' W 095°14'0 0.3
2015-Jan-18 10:33N 29°43' W 095°14'4 4.3
2015-Jan-18 09:33N 29°44' W 095°09'4 4.4
2015-Jan-18 08:33N 29°46' W 095°05'1 1.3
2015-Jan-18 07:33N 29°47' W 095°04'0 0.0
2015-Jan-18 06:33N 29°47' W 095°04'0 0.0
2015-Jan-18 05:33N 29°47' W 095°04'0 0.0
2015-Jan-18 04:33N 29°47' W 095°04'0 0.0
2015-Jan-18 03:33N 29°47' W 095°04'2 2.2
2015-Jan-18 02:33N 29°46' W 095°06'0 0.0
2015-Jan-18 01:33N 29°46' W 095°06'0 0.0
2015-Jan-18 00:33N 29°46' W 095°06'0 0.0
2015-Jan-17 23:33N 29°46' W 095°06'0 0.0
2015-Jan-17 22:33N 29°46' W 095°06'0 0.0
2015-Jan-17 21:33N 29°46' W 095°06'0 0.0
2015-Jan-17 20:33N 29°46' W 095°06'0 0.0
2015-Jan-17 19:33N 29°46' W 095°06'  

Dump ship's entire track history